This is the latest recevied weather packets stored in our database for station/object KF4UQS-14. If no packets are shown the sender has not sent any weather packets the latest 10 day(s).
| Time | Temp. | Humidity | Pressure | Rain* | Wind** | Luminosity | Snow |
|---|---|---|---|---|---|---|---|
| 1777904538 | 20° C | 53% | 1016.9 hPa | 0 mm | - | 581 W/m² | - |
| 1777904235 | 20° C | 57% | 1017 hPa | 0 mm | - | 567 W/m² | - |
| 1777903932 | 20° C | 56% | 1016.9 hPa | 0 mm | - | 553 W/m² | - |
| 1777903628 | 20° C | 58% | 1017.2 hPa | 0 mm | - | 316 W/m² | - |
| 1777903323 | 19.44° C | 60% | 1017 hPa | 0 mm | - | 81 W/m² | - |
| 1777903021 | 18.89° C | 61% | 1017.1 hPa | 0 mm | - | 79 W/m² | - |
| 1777902717 | 18.89° C | 61% | 1017.1 hPa | 0 mm | - | 79 W/m² | - |
| 1777902415 | 18.33° C | 64% | 1017.3 hPa | 0 mm | - | 78 W/m² | - |
| 1777902111 | 19.44° C | 61% | 1017 hPa | 0 mm | - | 77 W/m² | - |
| 1777901810 | 18.89° C | 64% | 1017.4 hPa | 0 mm | - | 74 W/m² | - |
| 1777901507 | 18.89° C | 63% | 1017.4 hPa | 0 mm | - | 75 W/m² | - |
| 1777901204 | 18.33° C | 65% | 1017.2 hPa | 0 mm | - | 71 W/m² | - |
| 1777900902 | 17.78° C | 67% | 1017.5 hPa | 0 mm | - | 71 W/m² | - |
| 1777900599 | 17.78° C | 68% | 1017.6 hPa | 0 mm | - | 71 W/m² | - |
| 1777900296 | 17.22° C | 68% | 1017.5 hPa | 0 mm | - | 71 W/m² | - |
| 1777899992 | 17.22° C | 69% | 1017.6 hPa | 0 mm | - | 71 W/m² | - |
| 1777899689 | 16.67° C | 69% | 1017.8 hPa | 0 mm | - | 71 W/m² | - |
| 1777899387 | 16.11° C | 72% | 1017.7 hPa | 0 mm | - | 70 W/m² | - |
| 1777899084 | 16.11° C | 72% | 1017.6 hPa | 0 mm | - | 69 W/m² | - |
| 1777898781 | 15.56° C | 73% | 1017.6 hPa | 0 mm | - | 68 W/m² | - |
| 1777898479 | 15.56° C | 73% | 1017.7 hPa | 0 mm | - | 68 W/m² | - |
| 1777898176 | 15° C | 75% | 1017.8 hPa | 0 mm | - | 69 W/m² | - |
| 1777897873 | 15° C | 75% | 1017.7 hPa | 0 mm | - | 69 W/m² | - |
| 1777897569 | 15° C | 76% | 1018 hPa | 0 mm | - | 89 W/m² | - |
| 1777897265 | 14.44° C | 77% | 1017.9 hPa | 0 mm | - | 98 W/m² | - |
* Rain latest hour (hover to see other rain measurements)
** Current wind speed in m/s (hover to see current wind gust speed)